Impacts TAF Board
For situational awareness. Not to be used for flight planning purposes.
IDs:

KMSP - Minneapolis-St Paul, MN, US

Issued at 2102 UTC 21 Sep 2021
Updated at 2250 UTC 21 Sep 2021
Potential Impact None Slight Moderate High
Time2153Z 21/23Z 22/00Z 22/01Z 22/02Z 22/03Z 22/04Z 22/05Z 22/06Z 22/07Z 22/08Z 22/09Z 22/10Z 22/11Z>>
Type OBS PRVL PRVL PRVL PRVL PRVL PRVL PRVL PRVL PRVL PRVL PRVL PRVL PRVL
VIS 10 >6 >6 >6 >6 >6 >6 >6 >6 >6 >6 >6 >6 >6
CIG -- -- -- -- -- -- -- -- -- -- -- -- -- --
Cover SCT SCT SCT SKC SKC SKC SKC SKC SKC SKC SKC SKC SKC SKC
FltCat VFR VFR VFR VFR VFR VFR VFR VFR VFR VFR VFR VFR VFR VFR
WX -- -- -- -- -- -- -- -- -- -- -- -- -- --
WDir 320 320 320 330 330 330 330 330 330 330 330 330 330 330
WSpd 11 12 12 6 6 6 6 6 6 6 6 6 6 6
WGst -- 20 20 -- -- -- -- -- -- -- -- -- -- --
Raw TAF
KMSP 212102Z 2121/2224 32012G20KT P6SM SCT050
  FM220100 33006KT P6SM SKC
  FM221600 03006KT P6SM FEW250


Raw METAR
KMSP 212153Z 32011KT 10SM SCT050 SCT150 18/06 A3023 RMK AO2 SLP237 T01780061
KMSP 212053Z 33012KT 10SM SCT050 SCT150 19/07 A3021 RMK AO2 SLP232 T01890072 55001
KMSP 211953Z 33013G22KT 10SM SCT050 SCT150 19/07 A3021 RMK AO2 SLP230 T01890072

METAR Board
Radar Display
Forecast Discussion
For situational awareness. Not to be used for flight planning purposes.